Time;durP1;ratioP1;P1;durP2;ratioP2;P2;SDS_P1;SDS_P2;PMS_P1;PMS_P2;Temp;Humidity;BMP_temperature;BMP_pressure;BME280_temperature;BME280_humidity;BME280_pressure;Samples;Min_cycle;Max_cycle;Signal;HPM_P1;HPM_P2
2023/09/18 00:02:17;;;;;;;4.27;3.87;;;;;;;19.87;100.00;99508.81;4969476;28;20233;-77
2023/09/18 00:04:42;;;;;;;4.30;3.90;;;;;;;19.87;100.00;99499.16;4966456;28;20780;-76
2023/09/18 00:07:07;;;;;;;5.63;4.53;;;;;;;19.87;100.00;99500.94;4964772;28;20186;-76
2023/09/18 00:09:33;;;;;;;9.67;4.47;;;;;;;19.85;100.00;99494.91;4968670;28;20214;-77
2023/09/18 00:11:58;;;;;;;4.13;3.70;;;;;;;19.84;100.00;99491.41;4965210;28;20201;-78
2023/09/18 00:14:23;;;;;;;4.07;3.67;;;;;;;19.85;100.00;99482.59;4965702;28;21102;-77
2023/09/18 00:16:49;;;;;;;5.57;4.30;;;;;;;19.87;100.00;99480.75;4966227;28;20189;-78
2023/09/18 00:19:14;;;;;;;4.53;4.13;;;;;;;19.90;100.00;99483.22;4966175;28;20201;-78
2023/09/18 00:21:40;;;;;;;5.17;4.10;;;;;;;19.92;100.00;99486.59;4972110;28;20230;-76
2023/09/18 00:24:08;;;;;;;4.77;4.03;;;;;;;19.97;100.00;99491.56;4967092;28;20190;-77
2023/09/18 00:26:33;;;;;;;5.40;4.07;;;;;;;19.99;100.00;99494.06;4964302;28;20198;-78
2023/09/18 00:28:58;;;;;;;5.10;4.60;;;;;;;19.97;100.00;99483.69;4976589;28;20551;-77
2023/09/18 00:31:23;;;;;;;4.53;4.13;;;;;;;19.98;100.00;99480.13;4958135;28;20284;-78
2023/09/18 00:33:49;;;;;;;5.43;4.00;;;;;;;20.00;100.00;99480.88;4958613;28;20217;-77
2023/09/18 00:36:14;;;;;;;5.07;3.93;;;;;;;20.03;100.00;99477.22;4965439;28;20304;-78
2023/09/18 00:38:39;;;;;;;4.67;4.27;;;;;;;20.04;100.00;99484.97;4959436;28;20194;-77
2023/09/18 00:41:05;;;;;;;4.80;4.40;;;;;;;20.02;100.00;99478.13;4962484;28;20773;-76
2023/09/18 00:43:31;;;;;;;4.53;4.03;;;;;;;20.02;100.00;99489.50;4958125;28;20218;-77
2023/09/18 00:45:57;;;;;;;4.53;4.13;;;;;;;20.00;100.00;99495.78;4963284;28;20244;-75
2023/09/18 00:48:22;;;;;;;4.67;4.10;;;;;;;19.98;100.00;99489.75;4963504;28;20218;-78
2023/09/18 00:50:48;;;;;;;4.23;3.83;;;;;;;19.98;100.00;99501.13;4962496;28;20224;-77
2023/09/18 00:53:17;;;;;;;4.37;3.97;;;;;;;19.99;100.00;99497.56;4958216;28;20265;-77
2023/09/18 00:55:43;;;;;;;4.80;3.60;;;;;;;20.01;100.00;99498.31;4963122;28;20213;-77
2023/09/18 00:58:09;;;;;;;3.33;3.07;;;;;;;20.04;100.00;99502.53;4963405;28;20220;-79
2023/09/18 01:00:35;;;;;;;3.23;2.90;;;;;;;20.08;100.00;99512.75;4964495;28;20722;-77
2023/09/18 01:03:01;;;;;;;2.77;2.30;;;;;;;20.16;100.00;99514.91;4958777;28;20212;-77
2023/09/18 01:05:27;;;;;;;2.70;2.50;;;;;;;20.24;100.00;99514.44;4967719;28;20213;-77
2023/09/18 01:07:52;;;;;;;2.87;2.60;;;;;;;20.32;100.00;99519.22;4961909;28;20202;-78
2023/09/18 01:10:22;;;;;;;2.57;2.37;;;;;;;20.39;100.00;99521.38;4960472;28;20193;-78
2023/09/18 01:13:02;;;;;;;2.60;2.40;;;;;;;20.48;100.00;99521.75;4969086;28;20204;-76
2023/09/18 01:15:35;;;;;;;3.67;3.03;;;;;;;20.55;100.00;99528.28;4962003;28;20237;-76
2023/09/18 01:18:00;;;;;;;3.03;2.70;;;;;;;20.62;100.00;99542.75;4958794;28;20200;-77
2023/09/18 01:20:27;;;;;;;3.60;2.80;;;;;;;20.68;100.00;99549.41;4963554;28;20329;-77
2023/09/18 01:22:52;;;;;;;3.40;3.10;;;;;;;20.73;100.00;99539.41;4961149;28;20201;-77
2023/09/18 01:25:18;;;;;;;3.43;3.13;;;;;;;20.78;100.00;99533.94;4964278;28;20233;-76
2023/09/18 01:27:43;;;;;;;3.50;3.10;;;;;;;20.82;100.00;99538.88;4963288;28;20918;-76
2023/09/18 01:30:09;;;;;;;5.00;3.47;;;;;;;20.86;100.00;99542.16;4955070;28;20187;-75
2023/09/18 01:32:36;;;;;;;3.03;2.80;;;;;;;20.89;100.00;99523.56;4972060;28;20690;-77
2023/09/18 01:35:05;;;;;;;3.50;3.20;;;;;;;20.92;100.00;99533.03;4989261;28;20209;-77
2023/09/18 01:37:31;;;;;;;4.00;3.60;;;;;;;20.93;100.00;99532.94;4963493;28;20220;-77
2023/09/18 01:39:59;;;;;;;3.90;3.33;;;;;;;20.94;100.00;99534.63;4960554;28;20220;-77
2023/09/18 01:42:26;;;;;;;4.00;3.37;;;;;;;20.95;100.00;99535.47;4957547;28;20209;-77
2023/09/18 01:44:53;;;;;;;4.43;3.17;;;;;;;20.95;100.00;99546.81;4953435;28;20213;-78
2023/09/18 01:47:20;;;;;;;4.37;3.60;;;;;;;20.98;100.00;99558.94;4958909;28;20186;-77
2023/09/18 01:49:46;;;;;;;5.70;3.63;;;;;;;21.00;100.00;99565.78;4963278;28;20189;-77
2023/09/18 01:52:12;;;;;;;4.80;3.70;;;;;;;21.04;100.00;99576.13;4958456;28;20252;-75
2023/09/18 01:54:37;;;;;;;4.33;3.93;;;;;;;21.05;100.00;99583.06;4965308;28;20673;-76
2023/09/18 01:57:04;;;;;;;4.67;3.63;;;;;;;21.07;100.00;99594.34;4963267;28;20280;-76
2023/09/18 01:59:29;;;;;;;4.67;4.00;;;;;;;21.06;100.00;99590.84;4963862;28;20214;-76
2023/09/18 02:01:55;;;;;;;4.80;3.83;;;;;;;21.08;100.00;99601.28;4966359;28;20649;-77
2023/09/18 02:04:21;;;;;;;3.63;3.33;;;;;;;21.09;100.00;99608.25;4966902;28;20220;-77
2023/09/18 02:06:48;;;;;;;4.30;3.83;;;;;;;21.08;100.00;99628.44;4966490;28;20193;-76
2023/09/18 02:09:14;;;;;;;3.63;3.30;;;;;;;21.09;100.00;99638.00;4965924;28;20190;-77
2023/09/18 02:11:41;;;;;;;4.80;3.60;;;;;;;21.10;100.00;99617.84;4968414;28;20237;-77
2023/09/18 02:14:07;;;;;;;5.20;3.57;;;;;;;21.07;100.00;99613.59;4965046;28;20629;-76
2023/09/18 02:16:34;;;;;;;3.73;3.40;;;;;;;21.05;100.00;99604.94;4972438;28;20197;-77
2023/09/18 02:19:00;;;;;;;4.90;3.70;;;;;;;21.04;100.00;99600.63;4971196;28;20568;-77
2023/09/18 02:21:26;;;;;;;3.30;3.00;;;;;;;21.04;100.00;99594.53;4966580;28;20336;-77
2023/09/18 02:23:52;;;;;;;3.23;2.87;;;;;;;21.01;100.00;99572.75;4969530;28;20285;-75
2023/09/18 02:26:18;;;;;;;4.27;3.50;;;;;;;20.99;100.00;99595.66;4965399;28;20208;-79
2023/09/18 02:28:44;;;;;;;4.73;3.60;;;;;;;20.97;100.00;99575.66;4974705;28;20249;-77
2023/09/18 02:31:09;;;;;;;3.60;3.20;;;;;;;20.95;100.00;99574.91;4976107;28;20193;-76
2023/09/18 02:33:35;;;;;;;3.30;3.00;;;;;;;20.95;100.00;99562.59;4964559;28;20196;-77
2023/09/18 02:36:00;;;;;;;3.90;3.03;;;;;;;20.95;100.00;99554.72;4964340;28;20197;-76
2023/09/18 02:38:26;;;;;;;3.60;3.30;;;;;;;20.96;100.00;99548.50;4964213;28;20201;-77
2023/09/18 02:40:53;;;;;;;3.67;3.37;;;;;;;20.97;100.00;99547.56;4964097;28;20709;-78
2023/09/18 02:43:18;;;;;;;4.60;3.00;;;;;;;20.99;100.00;99529.06;4963462;28;20272;-77
2023/09/18 02:45:45;;;;;;;4.57;3.43;;;;;;;21.00;100.00;99544.75;4961373;28;20251;-77
2023/09/18 02:48:11;;;;;;;3.80;3.40;;;;;;;21.01;100.00;99546.44;4967770;28;20302;-77
2023/09/18 02:50:36;;;;;;;3.20;2.90;;;;;;;21.00;100.00;99530.75;4967578;28;20193;-77
2023/09/18 02:53:01;;;;;;;3.70;3.23;;;;;;;20.99;100.00;99534.34;4962251;28;20729;-77
2023/09/18 02:55:26;;;;;;;4.50;3.40;;;;;;;20.95;100.00;99552.06;4965100;28;20213;-77
2023/09/18 02:57:52;;;;;;;5.57;3.40;;;;;;;20.90;100.00;99564.69;4976305;28;20203;-77
2023/09/18 03:00:17;;;;;;;5.17;3.23;;;;;;;20.85;100.00;99572.88;4965846;28;20300;-78
2023/09/18 03:02:43;;;;;;;4.53;3.50;;;;;;;20.83;100.00;99568.66;4967514;28;20292;-78
2023/09/18 03:05:08;;;;;;;4.07;3.10;;;;;;;20.80;100.00;99561.81;4965339;28;20213;-77
2023/09/18 03:07:34;;;;;;;3.57;3.13;;;;;;;20.76;100.00;99560.31;4961950;28;20309;-77
2023/09/18 03:09:59;;;;;;;5.00;3.40;;;;;;;20.76;100.00;99577.88;4963179;28;20189;-77
2023/09/18 03:12:24;;;;;;;4.57;3.17;;;;;;;20.74;100.00;99587.59;4972148;28;20190;-76
2023/09/18 03:14:50;;;;;;;3.97;3.20;;;;;;;20.74;100.00;99606.00;4965655;28;20225;-77
2023/09/18 03:17:15;;;;;;;4.83;3.23;;;;;;;20.71;100.00;99615.78;4965526;28;20302;-78
2023/09/18 03:19:40;;;;;;;5.00;3.47;;;;;;;20.73;100.00;99662.16;4974454;28;20264;-77
2023/09/18 03:22:06;;;;;;;6.60;4.10;;;;;;;20.72;100.00;99682.38;4968246;28;20195;-77
2023/09/18 03:24:31;;;;;;;6.90;3.93;;;;;;;20.73;100.00;99680.56;4974373;28;20219;-77
2023/09/18 03:26:56;;;;;;;5.33;3.80;;;;;;;20.71;100.00;99683.31;4980679;28;20185;-77
2023/09/18 03:29:22;;;;;;;6.60;3.93;;;;;;;20.68;100.00;99702.72;4976723;28;20647;-77
2023/09/18 03:31:47;;;;;;;7.17;4.43;;;;;;;20.69;100.00;99719.34;4963305;28;20267;-78
2023/09/18 03:34:13;;;;;;;12.40;4.90;;;;;;;20.71;100.00;99725.38;4969477;28;20202;-78
2023/09/18 03:36:39;;;;;;;8.73;4.40;;;;;;;20.70;100.00;99729.78;4971489;28;20285;-77
2023/09/18 03:39:05;;;;;;;10.63;4.30;;;;;;;20.71;100.00;99739.34;4966909;28;20264;-79
2023/09/18 03:41:33;;;;;;;11.13;4.20;;;;;;;20.71;100.00;99733.25;4976768;28;20198;-77
2023/09/18 03:44:02;;;;;;;8.93;4.73;;;;;;;20.74;100.00;99727.78;4963276;28;20198;-78
2023/09/18 03:46:27;;;;;;;6.63;4.33;;;;;;;20.62;100.00;99729.41;4958569;28;20187;-78
2023/09/18 03:48:53;;;;;;;7.03;3.97;;;;;;;20.51;100.00;99695.00;4965227;28;20751;-77
2023/09/18 03:51:19;;;;;;;8.57;4.63;;;;;;;20.38;100.00;99664.22;4962464;28;20217;-77
2023/09/18 03:53:44;;;;;;;9.40;4.13;;;;;;;20.28;100.00;99670.97;4960542;28;20237;-78
2023/09/18 03:56:09;;;;;;;5.57;3.87;;;;;;;20.23;100.00;99655.47;4966859;28;20631;-77
2023/09/18 03:58:35;;;;;;;5.63;3.30;;;;;;;20.17;100.00;99637.44;4967316;28;20221;-77
2023/09/18 04:01:01;;;;;;;7.03;3.43;;;;;;;20.14;100.00;99618.41;4966422;28;20206;-78
2023/09/18 04:03:26;;;;;;;7.27;3.23;;;;;;;20.15;100.00;99596.44;4960963;28;20194;-77
2023/09/18 04:05:51;;;;;;;8.23;3.70;;;;;;;20.14;100.00;99574.56;4962023;28;20709;-77
2023/09/18 04:08:17;;;;;;;5.77;3.40;;;;;;;20.12;100.00;99534.41;4966702;28;20670;-78
2023/09/18 04:10:43;;;;;;;6.90;3.67;;;;;;;20.11;100.00;99519.63;4957860;28;20277;-77
2023/09/18 04:13:09;;;;;;;8.60;3.97;;;;;;;20.08;100.00;99489.13;4965230;28;20178;-77
2023/09/18 04:15:37;;;;;;;5.90;4.07;;;;;;;20.07;100.00;99478.72;4962411;28;20244;-78
2023/09/18 04:18:05;;;;;;;8.67;4.10;;;;;;;20.07;100.00;99470.84;4960572;28;20201;-76
2023/09/18 04:20:31;;;;;;;6.20;4.00;;;;;;;20.07;100.00;99466.41;4960501;28;20341;-77
2023/09/18 04:23:18;;;;;;;6.67;4.00;;;;;;;20.07;100.00;99444.56;4961723;28;20646;-78
2023/09/18 04:25:44;;;;;;;7.73;3.67;;;;;;;20.06;100.00;99448.97;4958911;28;20209;-77
2023/09/18 04:28:09;;;;;;;9.07;3.83;;;;;;;20.05;100.00;99447.28;4963990;28;20207;-77
2023/09/18 04:30:35;;;;;;;3.83;2.80;;;;;;;20.03;100.00;99443.06;4960321;28;20241;-78
2023/09/18 04:33:00;;;;;;;3.50;2.67;;;;;;;20.02;100.00;99442.22;4959002;28;20197;-79
2023/09/18 04:35:25;;;;;;;5.47;2.83;;;;;;;20.00;100.00;99430.13;4962521;28;20223;-76
2023/09/18 04:37:56;;;;;;;6.40;2.77;;;;;;;19.99;100.00;99420.53;4965786;28;20883;-77
2023/09/18 04:40:23;;;;;;;7.83;3.30;;;;;;;19.99;100.00;99423.19;4963730;28;20218;-77
2023/09/18 04:42:49;;;;;;;8.03;3.43;;;;;;;19.98;100.00;99429.38;4966317;28;20666;-77
2023/09/18 04:45:15;;;;;;;5.03;3.20;;;;;;;19.97;100.00;99431.16;4966772;28;20222;-77
2023/09/18 04:47:41;;;;;;;4.87;2.87;;;;;;;19.97;100.00;99459.19;4961598;28;20194;-78
2023/09/18 04:50:09;;;;;;;4.20;3.00;;;;;;;19.95;100.00;99460.16;4960849;28;20191;-78
2023/09/18 04:52:35;;;;;;;3.93;2.73;;;;;;;19.95;100.00;99449.66;4961874;28;20216;-77
2023/09/18 04:55:01;;;;;;;4.60;3.00;;;;;;;19.94;100.00;99447.97;4962225;28;20225;-77
2023/09/18 04:57:26;;;;;;;6.50;2.67;;;;;;;19.94;100.00;99449.72;4961152;28;20272;-78
2023/09/18 04:59:52;;;;;;;4.00;2.60;;;;;;;19.91;100.00;99453.38;4959304;28;20212;-78
2023/09/18 05:02:17;;;;;;;8.27;3.27;;;;;;;19.91;100.00;99460.41;4962670;28;20206;-77
2023/09/18 05:04:42;;;;;;;4.93;2.50;;;;;;;19.90;100.00;99463.97;4970915;28;20761;-77
2023/09/18 05:07:08;;;;;;;5.30;2.40;;;;;;;19.88;100.00;99464.06;4964435;28;20631;-77
2023/09/18 05:09:34;;;;;;;4.23;2.93;;;;;;;19.88;100.00;99455.38;4970072;28;20190;-76
2023/09/18 05:11:59;;;;;;;5.43;2.47;;;;;;;19.85;100.00;99458.97;4967783;28;20193;-78
2023/09/18 05:14:25;;;;;;;3.93;2.33;;;;;;;19.86;100.00;99455.41;4962821;28;20220;-77
2023/09/18 05:16:50;;;;;;;4.67;2.40;;;;;;;19.87;100.00;99461.56;4958916;28;20207;-78
2023/09/18 05:19:15;;;;;;;5.37;2.20;;;;;;;19.87;100.00;99469.44;4972212;28;20225;-77
2023/09/18 05:21:41;;;;;;;3.97;2.60;;;;;;;19.88;100.00;99482.47;4994406;28;20166;-81
2023/09/18 05:24:07;;;;;;;3.93;2.07;;;;;;;19.90;100.00;99480.59;4973447;28;20205;-77
2023/09/18 05:26:33;;;;;;;4.57;2.17;;;;;;;19.92;100.00;99496.22;4959846;28;20256;-80
2023/09/18 05:28:59;;;;;;;3.93;2.13;;;;;;;19.93;100.00;99511.91;4967301;28;20188;-80
2023/09/18 05:31:24;;;;;;;4.13;2.33;;;;;;;19.96;100.00;99500.38;4960062;28;20276;-79
2023/09/18 05:33:50;;;;;;;4.10;2.40;;;;;;;19.97;100.00;99509.94;4959707;28;20227;-79
2023/09/18 05:36:15;;;;;;;4.47;2.60;;;;;;;19.99;100.00;99510.69;4958126;28;20202;-77
2023/09/18 05:38:41;;;;;;;5.37;2.60;;;;;;;20.00;100.00;99511.53;4956232;28;20198;-80
2023/09/18 05:41:07;;;;;;;4.90;2.60;;;;;;;20.00;100.00;99515.00;4956200;28;20209;-77
2023/09/18 05:43:32;;;;;;;4.50;2.63;;;;;;;20.02;100.00;99514.91;4956678;28;20268;-78
2023/09/18 05:45:58;;;;;;;2.73;2.43;;;;;;;20.05;100.00;99525.22;4958823;28;20241;-77
2023/09/18 05:48:23;;;;;;;5.77;2.67;;;;;;;20.07;100.00;99532.06;4966773;28;20225;-78
2023/09/18 05:50:48;;;;;;;4.90;2.80;;;;;;;20.09;100.00;99529.38;4962431;28;20195;-76
2023/09/18 05:53:14;;;;;;;4.53;2.80;;;;;;;20.12;100.00;99542.28;4961742;28;20197;-76
2023/09/18 05:55:39;;;;;;;5.60;2.87;;;;;;;20.15;100.00;99546.53;4958725;28;20662;-78
2023/09/18 05:58:06;;;;;;;5.23;3.13;;;;;;;20.17;100.00;99547.28;4956911;28;20689;-76
2023/09/18 06:00:32;;;;;;;5.53;3.10;;;;;;;20.18;100.00;99551.59;4961537;28;20231;-76
2023/09/18 06:02:58;;;;;;;6.70;3.60;;;;;;;20.21;100.00;99561.91;4964782;28;20198;-76
2023/09/18 06:05:24;;;;;;;4.83;2.83;;;;;;;20.22;100.00;99568.84;4960979;28;20613;-78
2023/09/18 06:07:50;;;;;;;5.90;3.03;;;;;;;20.22;100.00;99577.59;4952969;28;20194;-76
2023/09/18 06:10:17;;;;;;;4.00;3.00;;;;;;;20.24;100.00;99588.84;4961235;28;20237;-77
2023/09/18 06:12:43;;;;;;;5.20;3.27;;;;;;;20.25;100.00;99580.03;4975722;28;20708;-77
2023/09/18 06:15:12;;;;;;;4.53;3.03;;;;;;;20.25;100.00;99569.53;4964080;28;20209;-77
2023/09/18 06:17:39;;;;;;;6.80;2.67;;;;;;;20.26;100.00;99573.00;4970304;28;20198;-77
2023/09/18 06:20:07;;;;;;;6.93;3.50;;;;;;;20.25;100.00;99577.41;4964904;28;20226;-76
2023/09/18 06:22:33;;;;;;;5.90;3.10;;;;;;;20.25;100.00;99574.78;4968068;28;20650;-76
2023/09/18 06:24:58;;;;;;;6.53;3.30;;;;;;;20.28;100.00;99578.13;4971436;28;20205;-77
2023/09/18 06:27:23;;;;;;;8.03;3.57;;;;;;;20.28;100.00;99581.63;4975464;28;20186;-76
2023/09/18 06:29:48;;;;;;;4.77;3.10;;;;;;;20.29;100.00;99585.09;4965880;28;20194;-76
2023/09/18 06:32:14;;;;;;;4.80;3.07;;;;;;;20.29;100.00;99585.94;4970400;28;20189;-77
2023/09/18 06:34:42;;;;;;;6.50;3.20;;;;;;;20.30;100.00;99589.41;4971270;28;20613;-76
2023/09/18 06:37:08;;;;;;;4.90;2.83;;;;;;;20.30;100.00;99599.91;4974342;28;20694;-76
2023/09/18 06:39:33;;;;;;;4.63;3.00;;;;;;;20.28;100.00;99610.53;4965790;28;20256;-76
2023/09/18 06:41:58;;;;;;;6.90;3.23;;;;;;;20.28;100.00;99628.06;4960536;28;20253;-77
2023/09/18 06:44:24;;;;;;;5.40;3.40;;;;;;;20.28;100.00;99633.31;4965857;28;20280;-76
2023/09/18 06:46:49;;;;;;;5.90;3.27;;;;;;;20.28;100.00;99630.69;4964798;28;20194;-78
2023/09/18 06:49:14;;;;;;;4.33;3.43;;;;;;;20.30;100.00;99639.31;4970038;28;20237;-78
2023/09/18 06:51:40;;;;;;;6.53;2.70;;;;;;;20.30;100.00;99634.94;4968865;28;20265;-77
2023/09/18 06:54:05;;;;;;;3.67;3.03;;;;;;;20.31;100.00;99646.28;4972791;28;20809;-77
2023/09/18 06:56:30;;;;;;;4.60;2.70;;;;;;;20.33;100.00;99642.63;4972342;28;20213;-77
2023/09/18 06:58:56;;;;;;;5.67;2.47;;;;;;;20.35;100.00;99646.00;4972595;28;20185;-77
2023/09/18 07:01:24;;;;;;;4.97;2.60;;;;;;;20.37;100.00;99640.66;4971109;28;21146;-77
2023/09/18 07:03:50;;;;;;;7.53;3.13;;;;;;;20.40;100.00;99643.13;4969854;28;20622;-77
2023/09/18 07:06:21;;;;;;;3.77;2.40;;;;;;;20.42;100.00;99641.22;4965211;28;20212;-77
2023/09/18 07:08:49;;;;;;;10.37;3.47;;;;;;;20.47;100.00;99639.16;4976265;28;20755;-78
2023/09/18 07:11:14;;;;;;;9.47;3.60;;;;;;;20.53;100.00;99638.78;4973803;28;20189;-77
2023/09/18 07:13:40;;;;;;;12.40;3.13;;;;;;;20.56;100.00;99643.88;4972433;28;20200;-77
2023/09/18 07:16:06;;;;;;;7.47;2.63;;;;;;;20.62;100.00;99644.41;4972635;28;20232;-77
2023/09/18 07:18:31;;;;;;;4.60;2.43;;;;;;;20.64;100.00;99648.66;4990353;28;20193;-78
2023/09/18 07:20:56;;;;;;;5.57;2.23;;;;;;;20.68;100.00;99646.69;4979094;28;20228;-77
2023/09/18 07:23:22;;;;;;;3.87;2.03;;;;;;;20.69;100.00;99640.47;4971401;28;20192;-78
2023/09/18 07:25:48;;;;;;;2.50;1.87;;;;;;;20.69;100.00;99646.56;4963280;28;20214;-77
2023/09/18 07:28:17;;;;;;;5.00;2.30;;;;;;;20.70;100.00;99653.53;4969300;28;20644;-75
2023/09/18 07:30:43;;;;;;;2.10;1.60;;;;;;;20.71;100.00;99649.97;4968573;28;20615;-76
2023/09/18 07:33:10;;;;;;;2.60;1.70;;;;;;;20.74;100.00;99653.34;4968369;28;20655;-77
2023/09/18 07:35:35;;;;;;;2.03;1.60;;;;;;;20.75;100.00;99649.78;4968121;28;20244;-77
2023/09/18 07:38:00;;;;;;;2.30;1.60;;;;;;;20.74;100.00;99651.53;4970473;28;20686;-76
2023/09/18 07:40:26;;;;;;;4.70;1.70;;;;;;;20.71;100.00;99652.59;4968421;28;20300;-76
2023/09/18 07:42:51;;;;;;;4.70;1.83;;;;;;;20.70;100.00;99637.75;4970243;28;20212;-76
2023/09/18 07:45:18;;;;;;;4.80;1.67;;;;;;;20.68;100.00;99633.53;4969683;28;20209;-77
2023/09/18 07:47:43;;;;;;;4.60;1.37;;;;;;;20.64;100.00;99643.41;4969465;28;20276;-77
2023/09/18 07:50:09;;;;;;;1.30;1.20;;;;;;;20.64;100.00;99643.41;4965138;28;20277;-77
2023/09/18 07:52:34;;;;;;;2.87;1.10;;;;;;;20.65;100.00;99652.94;4977832;28;20978;-78
2023/09/18 07:54:59;;;;;;;2.00;1.27;;;;;;;20.65;100.00;99650.31;4966939;28;20220;-77
2023/09/18 07:57:28;;;;;;;4.37;1.30;;;;;;;20.70;100.00;99655.31;4971801;28;20194;-77
2023/09/18 07:59:53;;;;;;;2.03;1.40;;;;;;;20.73;100.00;99662.16;4966465;28;20224;-77
2023/09/18 08:02:19;;;;;;;2.03;1.40;;;;;;;20.76;100.00;99656.75;4976133;28;20197;-78
2023/09/18 08:04:44;;;;;;;1.77;1.23;;;;;;;20.79;100.00;99661.84;4973512;28;20201;-78
2023/09/18 08:07:10;;;;;;;1.83;1.10;;;;;;;20.83;100.00;99653.66;4969369;28;20265;-77
2023/09/18 08:09:36;;;;;;;1.83;1.13;;;;;;;20.84;100.00;99642.19;4969764;28;20190;-77
2023/09/18 08:12:05;;;;;;;2.03;1.30;;;;;;;20.88;100.00;99637.59;4972479;28;20588;-76
2023/09/18 08:14:31;;;;;;;3.03;1.10;;;;;;;20.89;100.00;99620.88;4971821;28;20675;-76
2023/09/18 08:16:58;;;;;;;2.77;1.10;;;;;;;20.91;100.00;99612.88;4962794;28;20198;-77
2023/09/18 08:19:23;;;;;;;1.70;1.00;;;;;;;20.93;100.00;99609.22;4965845;28;20685;-77
2023/09/18 08:21:48;;;;;;;4.50;1.30;;;;;;;20.96;100.00;99637.94;4961449;28;20204;-77
2023/09/18 08:24:14;;;;;;;1.50;1.10;;;;;;;20.98;100.00;99628.16;4970418;28;20194;-77
2023/09/18 08:26:39;;;;;;;1.70;1.10;;;;;;;21.00;100.00;99599.16;4967660;28;20708;-77
2023/09/18 08:29:04;;;;;;;3.27;1.10;;;;;;;21.03;100.00;99593.66;4966202;28;20191;-77
2023/09/18 08:31:31;;;;;;;2.50;1.20;;;;;;;21.04;100.00;99605.88;4970089;28;20190;-77
2023/09/18 08:33:57;;;;;;;6.40;1.40;;;;;;;21.04;100.00;99624.28;4971973;28;20190;-76
2023/09/18 08:36:22;;;;;;;3.03;1.30;;;;;;;21.04;100.00;99629.56;4967881;28;20692;-79
2023/09/18 08:38:47;;;;;;;3.60;1.53;;;;;;;21.04;100.00;99631.38;4978601;28;20267;-76
2023/09/18 08:41:14;;;;;;;3.50;1.60;;;;;;;21.06;100.00;99609.25;4971524;28;20206;-76
2023/09/18 08:43:42;;;;;;;3.27;1.70;;;;;;;21.10;100.00;99610.78;4969188;28;20552;-77
2023/09/18 08:46:09;;;;;;;3.20;1.40;;;;;;;21.15;100.00;99611.31;4971157;28;20215;-77
2023/09/18 08:48:35;;;;;;;2.13;1.30;;;;;;;21.21;100.00;99619.75;4971915;28;20197;-77
2023/09/18 08:51:05;;;;;;;2.30;1.50;;;;;;;21.25;100.00;99618.63;4978477;28;20182;-77
2023/09/18 08:53:31;;;;;;;3.17;1.13;;;;;;;21.29;100.00;99614.84;4968226;28;20201;-78
2023/09/18 08:55:58;;;;;;;2.90;1.50;;;;;;;21.30;100.00;99620.00;4964498;28;21050;-77
2023/09/18 08:58:26;;;;;;;2.70;1.43;;;;;;;21.29;100.00;99626.22;4973930;28;20803;-77
2023/09/18 09:00:52;;;;;;;3.60;1.50;;;;;;;21.29;100.00;99635.91;4977212;28;20216;-78
2023/09/18 09:03:18;;;;;;;4.23;1.90;;;;;;;21.30;100.00;99653.38;4981161;28;20205;-77
2023/09/18 09:05:43;;;;;;;1.83;1.30;;;;;;;21.25;100.00;99664.19;4973439;28;20210;-78
2023/09/18 09:08:08;;;;;;;2.20;1.30;;;;;;;21.24;100.00;99665.16;4983499;28;20177;-77
2023/09/18 09:10:34;;;;;;;3.23;1.33;;;;;;;21.25;100.00;99668.63;4978357;28;20328;-77
2023/09/18 09:13:01;;;;;;;3.00;1.60;;;;;;;21.25;100.00;99673.88;4975581;28;20185;-79
2023/09/18 09:15:28;;;;;;;3.40;1.50;;;;;;;21.22;100.00;99687.22;4982654;28;20228;-79
2023/09/18 09:18:06;;;;;;;2.80;1.40;;;;;;;21.21;100.00;99689.03;4985881;28;20193;-78
2023/09/18 09:20:32;;;;;;;3.17;1.47;;;;;;;21.20;100.00;99689.97;4982517;28;20212;-77
2023/09/18 09:23:02;;;;;;;3.90;1.53;;;;;;;21.22;100.00;99676.69;4971806;28;20187;-77
2023/09/18 09:25:33;;;;;;;3.83;1.93;;;;;;;21.23;100.00;99673.13;4976551;28;20209;-78
2023/09/18 09:28:04;;;;;;;2.03;1.30;;;;;;;21.23;100.00;99667.88;4979338;28;20196;-77
2023/09/18 09:30:31;;;;;;;1.60;1.13;;;;;;;21.26;100.00;99659.78;4969783;28;20201;-77
2023/09/18 09:32:58;;;;;;;2.57;1.30;;;;;;;21.30;100.00;99653.38;4980899;28;20191;-76
2023/09/18 09:35:27;;;;;;;1.70;1.30;;;;;;;21.32;100.00;99654.97;4971226;28;20214;-77
2023/09/18 09:37:56;;;;;;;3.83;1.40;;;;;;;21.38;100.00;99645.00;4965840;28;20196;-77
2023/09/18 09:40:22;;;;;;;5.10;1.30;;;;;;;21.40;100.00;99645.75;4972162;28;20205;-77
2023/09/18 09:42:51;;;;;;;2.90;1.20;;;;;;;21.46;100.00;99656.72;4979933;28;20276;-76
2023/09/18 09:45:17;;;;;;;2.53;1.30;;;;;;;21.47;100.00;99654.91;4972557;28;20293;-77
2023/09/18 09:47:43;;;;;;;1.97;1.30;;;;;;;21.52;100.00;99652.84;4970736;28;20628;-77
2023/09/18 09:50:11;;;;;;;1.50;0.93;;;;;;;21.52;100.00;99658.09;4969068;28;20189;-76
2023/09/18 09:52:47;;;;;;;1.50;1.13;;;;;;;21.57;100.00;99653.38;4971971;28;20198;-76
2023/09/18 09:55:31;;;;;;;3.37;1.00;;;;;;;21.63;100.00;99660.06;4967063;28;20296;-77
2023/09/18 09:58:06;;;;;;;2.30;1.47;;;;;;;21.67;100.00;99660.72;4966450;28;20570;-79
2023/09/18 10:00:43;;;;;;;2.50;1.00;;;;;;;21.73;100.00;99660.31;4974277;28;20209;-78
2023/09/18 10:03:12;;;;;;;5.60;1.40;;;;;;;21.70;100.00;99663.16;4966262;28;20543;-78
2023/09/18 10:05:42;;;;;;;3.83;1.43;;;;;;;21.74;100.00;99669.88;4958290;28;20209;-77
2023/09/18 10:08:15;;;;;;;2.10;1.10;;;;;;;21.83;100.00;99676.34;4962643;28;20258;-78
2023/09/18 10:10:51;;;;;;;2.83;1.00;;;;;;;21.81;100.00;99699.31;4968559;28;20182;-77
2023/09/18 10:13:20;;;;;;;1.20;1.10;;;;;;;21.78;100.00;99690.66;4968701;28;20184;-78
2023/09/18 10:15:49;;;;;;;2.27;1.10;;;;;;;21.78;100.00;99661.69;4967309;28;20296;-76
2023/09/18 10:18:22;;;;;;;1.47;1.07;;;;;;;21.81;100.00;99675.59;4965832;28;20705;-76
2023/09/18 10:20:51;;;;;;;1.73;1.20;;;;;;;21.86;100.00;99676.97;4966233;28;20225;-78
2023/09/18 10:24:12;;;;;;;1.33;0.87;;;;;;;21.93;100.00;99675.63;4968777;28;20180;-77
2023/09/18 10:26:46;;;;;;;2.27;1.00;;;;;;;22.05;100.00;99676.63;4966279;28;20200;-77
2023/09/18 10:29:14;;;;;;;2.73;1.03;;;;;;;22.15;100.00;99670.72;4973243;28;20716;-78
2023/09/18 10:31:43;;;;;;;1.17;0.80;;;;;;;22.19;100.00;99673.03;4971185;28;20200;-77
2023/09/18 10:34:09;;;;;;;2.53;0.80;;;;;;;22.32;100.00;99674.84;4971505;28;20612;-77
2023/09/18 10:36:37;;;;;;;2.73;1.00;;;;;;;22.43;100.00;99675.00;4971149;28;20216;-78
2023/09/18 10:39:08;;;;;;;1.87;1.10;;;;;;;22.50;100.00;99667.50;4963036;28;20182;-77
2023/09/18 10:41:34;;;;;;;1.77;0.90;;;;;;;22.56;100.00;99666.25;4971440;28;20186;-77
2023/09/18 10:44:01;;;;;;;2.40;1.20;;;;;;;22.63;100.00;99656.94;4968650;28;20186;-76
2023/09/18 10:46:27;;;;;;;1.57;0.90;;;;;;;22.70;100.00;99655.56;4971879;28;20292;-78
2023/09/18 10:48:54;;;;;;;2.63;1.20;;;;;;;22.73;100.00;99655.38;4968859;28;20293;-77
2023/09/18 10:51:21;;;;;;;1.57;1.00;;;;;;;22.79;100.00;99654.91;4964271;28;20182;-78
2023/09/18 10:53:52;;;;;;;1.53;0.90;;;;;;;22.86;100.00;99651.88;4973422;28;20186;-77
2023/09/18 10:56:19;;;;;;;2.87;1.00;;;;;;;23.03;100.00;99669.13;4983121;28;20204;-77
2023/09/18 10:58:45;;;;;;;2.13;1.10;;;;;;;23.14;100.00;99670.06;4972860;28;20254;-79
2023/09/18 11:01:13;;;;;;;2.10;1.10;;;;;;;23.21;100.00;99678.41;4973390;28;20305;-77
2023/09/18 11:03:40;;;;;;;1.57;0.97;;;;;;;23.26;99.47;99681.56;4968815;28;20212;-77
2023/09/18 11:06:09;;;;;;;2.20;1.03;;;;;;;23.33;99.11;99674.03;4975475;28;20267;-78
2023/09/18 11:08:43;;;;;;;2.53;1.20;;;;;;;23.43;98.65;99666.31;4983301;28;20189;-78
2023/09/18 11:11:12;;;;;;;2.00;1.20;;;;;;;23.50;97.41;99658.78;4976166;28;20186;-79
2023/09/18 11:13:40;;;;;;;1.60;1.00;;;;;;;23.54;97.83;99674.28;4982771;28;20576;-78
2023/09/18 11:16:26;;;;;;;2.37;0.90;;;;;;;23.66;97.65;99671.69;4972665;28;20272;-78
2023/09/18 11:18:57;;;;;;;1.10;0.87;;;;;;;23.70;97.47;99668.69;4977496;28;20198;-77
2023/09/18 11:21:27;;;;;;;2.27;1.00;;;;;;;23.78;97.12;99668.13;4965308;28;20218;-78
2023/09/18 11:23:59;;;;;;;1.33;0.87;;;;;;;23.86;96.11;99668.41;4976999;28;20382;-77